Angle Inlet, Minnesota
Current Conditions -  °F | °C
As of 9:34 AM on Thursday 23 Oct 2014 (Local Time) from KFGN Reporting Station
Overcast Overcast  
Wind Chill:   Ceiling: 7500
Heat Index:   Visibility: 10mi
Dew Point:   Wind: 9mph
Humidity: 93%   Direction: 200°SSW
Pressure: 29.81"   Gusts: NA
Location:  49.35°N, 95.08°W
Report Text: KFGN 231434Z AUTO 20008KT 10SM OVC075 09/08 A2981 RMK AO2
Loading
Personal Weather Stations






























Interactive Weather Map
Tropical Storm Tracking
New forecast layout! Learn more

10-Day Weather Forecast

Advertisements
Track Severe Weather on mobile